SHHI weather

Hospital de Carabineros Heliport
Santiago, Santiago Metropolitan Region, Chile

Public forecast

Using degrees Celsius for public forecast. Weather courtesy of forecast.io.

Closest aviation weather report (METAR) to Hospital de Carabineros Heliport

Closest report is Eulogio Sánchez Airport, 2.5 nm (4.6 km) SSW. Retrieved 2020/08/05 16:00 UTC (55 minutes ago):

SCTB 051600Z 27003KT CAVOK 16/08 Q1024

Closest aviation forecast (TAF) to Hospital de Carabineros Heliport

Closest forecast is Comodoro Arturo Merino Benítez International Airport, 13.0 nm (24.0 km) W. Retrieved 2020/08/05 12:00 UTC (5 hours ago):

TAF SCEL 051025Z 0512/0612 26004KT 7000 SCT015 BKN075 TX15/0518Z TN04/0610Z BECMG 0514/0516 9999 BKN030 BKN055 BECMG 0517/0519 22006KT BKN025 BKN035 BECMG 0601/0603 26004KT BECMG 0604/0606 4000 BR SCT010 BKN020 TEMPO 0606/0612 VRB02KT 0500 FG BKN003